createdAt,value
2022-07-27T00:01:10.338Z,100432.50
2022-07-27T00:03:37.822Z,100434.13
2022-07-27T00:06:05.083Z,100437.94
2022-07-27T00:08:32.131Z,100445.97
2022-07-27T00:10:59.253Z,100445.56
2022-07-27T00:13:26.265Z,100447.59
2022-07-27T00:15:53.503Z,100447.28
2022-07-27T00:18:20.787Z,100440.66
2022-07-27T00:20:47.851Z,100440.97
2022-07-27T00:23:14.883Z,100434.84
2022-07-27T00:25:41.877Z,100440.22
2022-07-27T00:28:08.838Z,100451.34
2022-07-27T00:30:35.808Z,100450.47
2022-07-27T00:33:03.582Z,100447.38
2022-07-27T00:35:30.666Z,100448.69
2022-07-27T00:37:57.714Z,100449.28
2022-07-27T00:40:26.130Z,100451.59
2022-07-27T00:42:53.557Z,100460.56
2022-07-27T00:45:20.536Z,100452.72
2022-07-27T00:47:51.702Z,100456.59
2022-07-27T00:50:21.836Z,100445.47
2022-07-27T00:52:49.431Z,100457.22
2022-07-27T00:55:16.363Z,100457.69
2022-07-27T00:57:58.330Z,100460.66
2022-07-27T01:00:27.638Z,100463.88
2022-07-27T01:02:55.129Z,100452.72
2022-07-27T01:05:36.059Z,100450.91
2022-07-27T01:08:05.085Z,100452.53
2022-07-27T01:10:32.266Z,100448.56
2022-07-27T01:12:59.953Z,100455.84
2022-07-27T01:15:27.354Z,100453.59
2022-07-27T01:17:54.274Z,100459.38
2022-07-27T01:20:21.326Z,100450.38
2022-07-27T01:22:48.462Z,100456.16
2022-07-27T01:25:15.711Z,100454.34
2022-07-27T01:27:42.659Z,100448.34
2022-07-27T01:30:30.417Z,100443.94
2022-07-27T01:33:02.923Z,100442.97
2022-07-27T01:35:30.187Z,100439.56
2022-07-27T01:37:57.669Z,100437.97
2022-07-27T01:40:25.415Z,100436.88
2022-07-27T01:42:52.760Z,100435.16
2022-07-27T01:45:20.087Z,100432.50
2022-07-27T01:47:47.364Z,100434.19
2022-07-27T01:50:14.717Z,100441.06
2022-07-27T01:52:41.683Z,100439.47
2022-07-27T01:55:11.092Z,100439.03
2022-07-27T01:57:38.902Z,100437.19
2022-07-27T02:00:10.791Z,100441.78
2022-07-27T02:02:41.193Z,100439.47
2022-07-27T02:05:12.817Z,100441.91
2022-07-27T02:07:41.538Z,100430.56
2022-07-27T02:10:10.070Z,100425.56
2022-07-27T02:12:37.690Z,100425.66
2022-07-27T02:15:15.130Z,100431.31
2022-07-27T02:17:44.728Z,100430.88
2022-07-27T02:20:14.425Z,100425.97
2022-07-27T02:22:42.433Z,100421.66
2022-07-27T02:25:12.158Z,100429.50
2022-07-27T02:27:41.347Z,100428.53
2022-07-27T02:30:10.561Z,100425.00
2022-07-27T02:32:37.826Z,100421.13
2022-07-27T02:35:18.726Z,100418.91
2022-07-27T02:37:48.654Z,100415.91
2022-07-27T02:40:17.853Z,100417.41
2022-07-27T02:42:47.159Z,100413.84
2022-07-27T02:45:15.825Z,100428.50
2022-07-27T02:47:44.422Z,100424.69
2022-07-27T02:50:12.139Z,100423.06
2022-07-27T02:52:39.837Z,100414.72
2022-07-27T02:55:07.977Z,100411.63
2022-07-27T02:57:37.725Z,100416.31
2022-07-27T03:00:15.250Z,100423.06
2022-07-27T03:02:42.659Z,100416.53
2022-07-27T03:05:10.729Z,100416.44
2022-07-27T03:07:37.720Z,100423.47
2022-07-27T03:10:05.509Z,100421.22
2022-07-27T03:12:32.505Z,100430.44
2022-07-27T03:14:59.438Z,100417.56
2022-07-27T03:17:26.790Z,100419.28
2022-07-27T03:19:53.912Z,100428.56
2022-07-27T03:22:20.913Z,100431.69
2022-07-27T03:24:47.865Z,100435.75
2022-07-27T03:27:14.842Z,100426.66
2022-07-27T03:29:42.197Z,100428.38
2022-07-27T03:32:09.219Z,100423.44
2022-07-27T03:34:36.223Z,100425.81
2022-07-27T03:37:03.154Z,100427.84
2022-07-27T03:39:30.186Z,100441.75
2022-07-27T03:41:57.151Z,100436.16
2022-07-27T03:44:24.185Z,100441.41
2022-07-27T03:46:51.159Z,100440.22
2022-07-27T03:49:18.711Z,100441.72
2022-07-27T03:51:45.726Z,100445.00
2022-07-27T03:54:12.992Z,100436.47
2022-07-27T03:56:40.004Z,100430.34
2022-07-27T03:59:06.924Z,100435.16
2022-07-27T04:01:34.020Z,100433.16
2022-07-27T04:04:01.103Z,100436.03
2022-07-27T04:06:28.475Z,100435.38
2022-07-27T04:08:59.579Z,100439.75
2022-07-27T04:11:42.324Z,100450.84
2022-07-27T04:14:12.820Z,100442.38
2022-07-27T04:16:41.330Z,100450.09
2022-07-27T04:19:08.857Z,100453.44
2022-07-27T04:21:35.911Z,100444.44
2022-07-27T04:24:03.021Z,100449.13
2022-07-27T04:26:30.097Z,100440.16
2022-07-27T04:28:57.168Z,100452.84
2022-07-27T04:31:24.488Z,100448.19
2022-07-27T04:33:51.475Z,100457.34
2022-07-27T04:36:18.528Z,100455.44
2022-07-27T04:38:45.840Z,100460.69
2022-07-27T04:41:12.903Z,100462.63
2022-07-27T04:43:40.022Z,100473.41
2022-07-27T04:46:10.650Z,100464.56
2022-07-27T04:48:42.299Z,100464.41
2022-07-27T04:51:17.657Z,100462.81
2022-07-27T04:53:53.529Z,100466.31
2022-07-27T04:56:26.881Z,100462.63
2022-07-27T04:58:57.358Z,100471.19
2022-07-27T05:01:25.594Z,100468.22
2022-07-27T05:03:53.880Z,100472.69
2022-07-27T05:06:20.956Z,100463.72
2022-07-27T05:08:48.117Z,100466.28
2022-07-27T05:11:15.162Z,100466.50
2022-07-27T05:13:42.163Z,100468.88
2022-07-27T05:16:10.729Z,100478.72
2022-07-27T05:18:39.000Z,100463.91
2022-07-27T05:21:07.709Z,100475.19
2022-07-27T05:23:35.619Z,100473.16
2022-07-27T05:26:03.091Z,100474.78
2022-07-27T05:28:30.221Z,100474.78
2022-07-27T05:30:57.327Z,100484.41
2022-07-27T05:33:25.178Z,100485.69
2022-07-27T05:35:52.213Z,100492.63
2022-07-27T05:38:19.155Z,100495.97
2022-07-27T05:40:46.935Z,100495.50
2022-07-27T05:43:14.526Z,100499.44
2022-07-27T05:45:41.633Z,100500.75
2022-07-27T05:48:09.206Z,100502.38
2022-07-27T05:50:36.538Z,100495.31
2022-07-27T05:53:03.808Z,100504.09
2022-07-27T05:55:30.894Z,100513.47
2022-07-27T05:57:57.995Z,100507.53
2022-07-27T06:00:25.073Z,100508.16
2022-07-27T06:02:52.079Z,100518.34
2022-07-27T06:05:19.121Z,100514.75
2022-07-27T06:08:06.462Z,100516.03
2022-07-27T06:10:36.399Z,100524.16
2022-07-27T06:13:06.092Z,100525.78
2022-07-27T06:15:33.456Z,100527.84
2022-07-27T06:18:00.796Z,100532.25
2022-07-27T06:20:28.003Z,100529.75
2022-07-27T06:23:07.560Z,100533.00
2022-07-27T06:25:35.897Z,100532.56
2022-07-27T06:28:05.441Z,100526.81
2022-07-27T06:30:33.201Z,100527.88
2022-07-27T06:33:00.745Z,100536.75
2022-07-27T06:35:28.070Z,100541.63
2022-07-27T06:37:55.021Z,100538.34
2022-07-27T06:40:23.776Z,100542.50
2022-07-27T06:42:52.382Z,100541.25
2022-07-27T06:45:19.620Z,100544.31
2022-07-27T06:47:48.912Z,100543.19
2022-07-27T06:50:20.266Z,100539.31
2022-07-27T06:52:50.430Z,100542.75
2022-07-27T06:55:17.743Z,100542.03
2022-07-27T06:57:46.231Z,100536.13
2022-07-27T07:00:14.264Z,100536.06
2022-07-27T07:03:00.470Z,100549.97
2022-07-27T07:05:27.710Z,100545.31
2022-07-27T07:07:55.290Z,100549.38
2022-07-27T07:10:24.001Z,100538.56
2022-07-27T07:12:55.532Z,100543.69
2022-07-27T07:15:26.882Z,100546.50
2022-07-27T07:17:54.565Z,100541.00
2022-07-27T07:20:22.535Z,100548.75
2022-07-27T07:22:50.311Z,100547.38
2022-07-27T07:25:17.957Z,100547.25
2022-07-27T07:27:45.053Z,100547.78
2022-07-27T07:30:12.964Z,100551.63
2022-07-27T07:32:40.057Z,100548.94
2022-07-27T07:35:08.215Z,100554.13
2022-07-27T07:37:35.423Z,100553.47
2022-07-27T07:40:32.191Z,100555.06
2022-07-27T07:43:03.188Z,100556.38
2022-07-27T07:45:33.441Z,100556.91
2022-07-27T07:48:00.840Z,100552.72
2022-07-27T07:50:28.371Z,100555.59
2022-07-27T07:52:55.723Z,100557.47
2022-07-27T07:55:26.481Z,100546.91
2022-07-27T07:57:54.147Z,100553.91
2022-07-27T08:00:22.385Z,100551.88
2022-07-27T08:02:53.670Z,100545.63
2022-07-27T08:05:21.789Z,100553.16
2022-07-27T08:07:50.010Z,100551.88
2022-07-27T08:10:20.681Z,100553.25
2022-07-27T08:12:52.069Z,100548.22
2022-07-27T08:15:20.506Z,100551.06
2022-07-27T08:17:48.747Z,100550.34
2022-07-27T08:20:17.725Z,100553.88
2022-07-27T08:22:45.235Z,100556.28
2022-07-27T08:25:13.064Z,100554.56
2022-07-27T08:27:41.041Z,100558.53
2022-07-27T08:30:10.463Z,100551.94
2022-07-27T08:33:01.109Z,100556.13
2022-07-27T08:35:29.667Z,100560.66
2022-07-27T08:37:57.136Z,100560.56
2022-07-27T08:40:39.505Z,100554.00
2022-07-27T08:43:09.076Z,100556.06
2022-07-27T08:45:37.694Z,100560.00
2022-07-27T08:48:05.779Z,100551.06
2022-07-27T08:50:35.299Z,100550.91
2022-07-27T08:53:08.466Z,100561.50
2022-07-27T08:55:42.858Z,100559.50
2022-07-27T08:58:11.294Z,100556.81
2022-07-27T09:00:45.313Z,100549.66
2022-07-27T09:03:19.173Z,100551.66
2022-07-27T09:05:51.471Z,100548.75
2022-07-27T09:08:24.304Z,100555.25
2022-07-27T09:10:55.233Z,100550.72
2022-07-27T09:13:26.646Z,100547.72
2022-07-27T09:16:20.878Z,100551.63
2022-07-27T09:18:58.133Z,100556.66
2022-07-27T09:21:25.787Z,100554.09
2022-07-27T09:23:58.970Z,100547.13
2022-07-27T09:26:33.845Z,100546.75
2022-07-27T09:29:14.220Z,100547.38
2022-07-27T09:31:50.325Z,100551.03
2022-07-27T09:34:34.209Z,100549.56
2022-07-27T09:37:06.478Z,100541.13
2022-07-27T09:39:33.843Z,100535.66
2022-07-27T09:42:02.510Z,100545.38
2022-07-27T09:44:44.598Z,100539.06
2022-07-27T09:47:28.780Z,100547.38
2022-07-27T09:50:16.203Z,100541.34
2022-07-27T09:52:44.832Z,100538.38
2022-07-27T09:55:12.143Z,100543.63
2022-07-27T09:57:58.444Z,100547.53
2022-07-27T10:00:27.375Z,100544.81
2022-07-27T10:02:55.567Z,100534.81
2022-07-27T10:05:23.450Z,100552.44
2022-07-27T10:07:53.327Z,100548.63
2022-07-27T10:10:21.344Z,100547.81
2022-07-27T10:12:54.030Z,100543.84
2022-07-27T10:15:24.415Z,100547.09
2022-07-27T10:18:11.851Z,100552.47
2022-07-27T10:20:42.378Z,100555.97
2022-07-27T10:23:35.246Z,100556.66
2022-07-27T10:26:20.469Z,100557.44
2022-07-27T10:29:04.986Z,100554.31
2022-07-27T10:31:38.505Z,100565.78
2022-07-27T10:34:12.729Z,100554.53
2022-07-27T10:36:50.900Z,100550.22
2022-07-27T10:39:40.898Z,100558.72
2022-07-27T10:42:31.306Z,100563.53
2022-07-27T10:45:16.099Z,100558.50
2022-07-27T10:47:52.316Z,100553.94
2022-07-27T10:50:26.962Z,100552.97
2022-07-27T10:53:13.799Z,100549.44
2022-07-27T10:55:42.840Z,100548.81
2022-07-27T10:58:09.744Z,100554.06
2022-07-27T11:00:55.066Z,100547.94
2022-07-27T11:03:43.560Z,100558.72
2022-07-27T11:06:32.918Z,100554.22
2022-07-27T11:11:50.190Z,100549.97
2022-07-27T11:14:19.026Z,100545.13
2022-07-27T11:16:55.593Z,100542.22
2022-07-27T11:19:24.170Z,100551.72
2022-07-27T11:21:53.781Z,100554.75
2022-07-27T11:24:23.311Z,100552.97
2022-07-27T11:26:54.896Z,100548.56
2022-07-27T11:29:24.739Z,100547.56
2022-07-27T11:31:57.006Z,100543.44
2022-07-27T11:34:34.934Z,100546.72
2022-07-27T11:37:12.063Z,100544.69
2022-07-27T11:40:00.205Z,100539.28
2022-07-27T11:42:38.501Z,100523.66
2022-07-27T11:45:07.123Z,100526.63
2022-07-27T11:47:34.291Z,100527.75
2022-07-27T11:50:11.694Z,100516.06
2022-07-27T11:52:38.981Z,100518.50
2022-07-27T11:55:13.589Z,100517.66
2022-07-27T11:57:43.552Z,100526.34
2022-07-27T12:00:11.798Z,100516.50
2022-07-27T12:02:51.964Z,100521.50
2022-07-27T12:05:19.143Z,100526.47
2022-07-27T12:07:46.250Z,100522.94
2022-07-27T12:10:13.416Z,100507.44
2022-07-27T12:12:40.396Z,100513.66
2022-07-27T12:15:44.590Z,100522.06
2022-07-27T12:18:00.625Z,100509.13
2022-07-27T12:20:36.470Z,100496.75
2022-07-27T12:23:13.295Z,100498.47
2022-07-27T12:25:41.331Z,100499.72
2022-07-27T12:28:17.888Z,100505.66
2022-07-27T12:30:51.704Z,100502.22
2022-07-27T12:33:37.082Z,100505.19
2022-07-27T12:36:07.919Z,100509.66
2022-07-27T12:38:43.478Z,100496.69
2022-07-27T12:41:24.215Z,100498.47
2022-07-27T12:44:11.926Z,100501.13
2022-07-27T12:46:59.341Z,100505.81
2022-07-27T12:49:28.702Z,100499.22
2022-07-27T12:52:10.414Z,100497.28
2022-07-27T12:54:38.631Z,100495.38
2022-07-27T12:57:05.747Z,100487.78
2022-07-27T12:59:32.857Z,100488.47
2022-07-27T13:02:00.013Z,100485.03
2022-07-27T13:04:27.364Z,100484.97
2022-07-27T13:06:54.405Z,100484.47
2022-07-27T13:09:21.503Z,100481.66
2022-07-27T13:11:48.667Z,100469.97
2022-07-27T13:14:16.185Z,100479.03
2022-07-27T13:16:43.250Z,100469.66
2022-07-27T13:19:10.948Z,100471.69
2022-07-27T13:21:38.439Z,100473.88
2022-07-27T13:24:08.886Z,100448.94
2022-07-27T13:26:40.774Z,100456.91
2022-07-27T13:29:07.952Z,100450.84
2022-07-27T13:31:35.577Z,100449.00
2022-07-27T13:34:03.030Z,100442.34
2022-07-27T13:36:30.022Z,100439.31
2022-07-27T13:38:57.037Z,100444.97
2022-07-27T13:41:24.130Z,100447.72
2022-07-27T13:43:51.154Z,100449.56
2022-07-27T13:46:18.182Z,100445.25
2022-07-27T13:48:45.301Z,100436.41
2022-07-27T13:51:12.257Z,100442.34
2022-07-27T13:53:39.218Z,100443.50
2022-07-27T13:56:07.388Z,100447.34
2022-07-27T13:58:35.281Z,100449.47
2022-07-27T14:01:07.163Z,100433.19
2022-07-27T14:03:34.835Z,100435.69
2022-07-27T14:06:01.819Z,100440.09
2022-07-27T14:08:28.880Z,100425.09
2022-07-27T14:10:55.956Z,100429.78
2022-07-27T14:13:24.822Z,100429.97
2022-07-27T14:15:53.875Z,100434.84
2022-07-27T14:18:24.906Z,100433.78
2022-07-27T14:20:52.247Z,100435.03
2022-07-27T14:23:19.511Z,100426.34
2022-07-27T14:25:46.592Z,100417.66
2022-07-27T14:28:13.655Z,100423.47
2022-07-27T14:30:40.759Z,100427.34
2022-07-27T14:33:07.870Z,100433.25
2022-07-27T14:35:40.277Z,100425.25
2022-07-27T14:38:09.289Z,100428.59
2022-07-27T14:40:37.080Z,100424.06
2022-07-27T14:43:04.896Z,100431.25
2022-07-27T14:45:43.990Z,100426.81
2022-07-27T14:48:21.055Z,100428.69
2022-07-27T14:50:50.306Z,100428.13
2022-07-27T14:53:17.485Z,100422.59
2022-07-27T14:55:44.513Z,100427.31
2022-07-27T14:58:11.747Z,100418.84
2022-07-27T15:00:39.820Z,100411.72
2022-07-27T15:03:07.360Z,100415.38
2022-07-27T15:05:50.066Z,100414.94
2022-07-27T15:08:19.938Z,100402.25
2022-07-27T15:10:47.683Z,100403.47
2022-07-27T15:13:14.908Z,100403.66
2022-07-27T15:15:42.374Z,100404.19
2022-07-27T15:18:09.736Z,100407.25
2022-07-27T15:20:36.727Z,100407.97
2022-07-27T15:23:04.140Z,100397.06
2022-07-27T15:25:31.213Z,100392.38
2022-07-27T15:27:58.589Z,100395.72
2022-07-27T15:30:25.691Z,100393.81
2022-07-27T15:32:52.734Z,100393.66
2022-07-27T15:35:19.835Z,100378.97
2022-07-27T15:37:54.225Z,100385.66
2022-07-27T15:40:38.955Z,100381.72
2022-07-27T15:43:11.307Z,100386.22
2022-07-27T15:45:41.541Z,100377.81
2022-07-27T15:48:10.683Z,100368.53
2022-07-27T15:50:39.578Z,100386.97
2022-07-27T15:53:07.979Z,100372.34
2022-07-27T15:55:37.509Z,100381.44
2022-07-27T15:58:06.618Z,100387.53
2022-07-27T16:00:39.569Z,100382.88
2022-07-27T16:03:09.773Z,100378.25
2022-07-27T16:05:37.917Z,100377.69
2022-07-27T16:08:07.506Z,100375.47
2022-07-27T16:10:34.539Z,100373.69
2022-07-27T16:13:01.779Z,100370.13
2022-07-27T16:15:47.793Z,100370.28
2022-07-27T16:18:14.828Z,100371.97
2022-07-27T16:20:41.875Z,100360.84
2022-07-27T16:23:17.855Z,100365.16
2022-07-27T16:26:04.603Z,100354.09
2022-07-27T16:28:36.013Z,100351.78
2022-07-27T16:31:05.048Z,100352.66
2022-07-27T16:33:32.209Z,100348.03
2022-07-27T16:35:59.773Z,100345.16
2022-07-27T16:38:27.701Z,100354.59
2022-07-27T16:40:54.883Z,100346.78
2022-07-27T16:43:21.875Z,100341.13
2022-07-27T16:45:48.914Z,100337.31
2022-07-27T16:48:17.057Z,100351.31
2022-07-27T16:50:44.012Z,100349.63
2022-07-27T16:53:11.263Z,100349.81
2022-07-27T16:55:39.441Z,100359.22
2022-07-27T16:58:06.448Z,100354.66
2022-07-27T17:00:38.284Z,100348.72
2022-07-27T17:03:06.411Z,100338.09
2022-07-27T17:05:33.555Z,100344.50
2022-07-27T17:08:00.688Z,100347.00
2022-07-27T17:10:27.825Z,100343.16
2022-07-27T17:12:57.766Z,100346.28
2022-07-27T17:15:25.745Z,100346.97
2022-07-27T17:17:52.815Z,100353.00
2022-07-27T17:20:27.870Z,100349.41
2022-07-27T17:23:03.458Z,100348.22
2022-07-27T17:25:30.566Z,100356.22
2022-07-27T17:27:58.269Z,100343.88
2022-07-27T17:30:25.372Z,100337.16
2022-07-27T17:32:53.329Z,100341.50
2022-07-27T17:35:20.487Z,100351.94
2022-07-27T17:38:05.507Z,100345.09
2022-07-27T17:40:34.092Z,100344.63
2022-07-27T17:43:01.118Z,100338.78
2022-07-27T17:45:28.289Z,100336.16
2022-07-27T17:47:55.264Z,100341.66
2022-07-27T17:50:22.559Z,100346.69
2022-07-27T17:52:49.596Z,100344.19
2022-07-27T17:55:17.114Z,100340.31
2022-07-27T17:57:46.009Z,100345.66
2022-07-27T18:00:14.169Z,100341.63
2022-07-27T18:02:41.319Z,100345.66
2022-07-27T18:05:08.734Z,100351.78
2022-07-27T18:07:39.321Z,100350.53
2022-07-27T18:10:08.893Z,100348.84
2022-07-27T18:12:36.781Z,100348.72
2022-07-27T18:15:23.539Z,100351.63
2022-07-27T18:17:51.046Z,100354.94
2022-07-27T18:20:18.695Z,100354.91
2022-07-27T18:22:45.902Z,100361.84
2022-07-27T18:25:15.681Z,100360.84
2022-07-27T18:27:44.847Z,100371.88
2022-07-27T18:30:12.400Z,100371.50
2022-07-27T18:32:40.113Z,100376.59
2022-07-27T18:35:08.229Z,100385.28
2022-07-27T18:37:35.946Z,100382.16
2022-07-27T18:40:10.827Z,100384.34
2022-07-27T18:42:42.038Z,100389.06
2022-07-27T18:45:10.960Z,100388.50
2022-07-27T18:47:38.359Z,100387.78
2022-07-27T18:50:10.642Z,100393.66
2022-07-27T18:52:38.089Z,100396.09
2022-07-27T18:55:06.331Z,100397.69
2022-07-27T18:57:33.307Z,100395.00
2022-07-27T19:00:00.526Z,100398.44
2022-07-27T19:02:27.565Z,100404.53
2022-07-27T19:04:54.882Z,100409.78
2022-07-27T19:07:22.230Z,100409.50
2022-07-27T19:09:50.916Z,100408.94
2022-07-27T19:12:18.486Z,100411.34
2022-07-27T19:14:45.543Z,100417.47
2022-07-27T19:17:20.434Z,100423.13
2022-07-27T19:19:50.941Z,100417.16
2022-07-27T19:22:20.162Z,100428.19
2022-07-27T19:24:51.481Z,100425.66
2022-07-27T19:27:22.495Z,100432.22
2022-07-27T19:29:49.834Z,100436.53
2022-07-27T19:32:16.865Z,100432.31
2022-07-27T19:34:44.168Z,100446.97
2022-07-27T19:37:11.526Z,100444.59
2022-07-27T19:40:02.240Z,100437.53
2022-07-27T19:42:25.896Z,100441.66
2022-07-27T19:44:53.542Z,100447.41
2022-07-27T19:47:20.624Z,100450.75
2022-07-27T19:49:48.108Z,100458.28
2022-07-27T19:52:15.379Z,100456.50
2022-07-27T19:54:42.762Z,100458.78
2022-07-27T19:57:11.494Z,100459.22
2022-07-27T19:59:54.937Z,100454.69
2022-07-27T20:02:24.077Z,100464.47
2022-07-27T20:04:51.205Z,100461.78
2022-07-27T20:07:18.239Z,100463.13
2022-07-27T20:09:45.283Z,100466.91
2022-07-27T20:12:12.311Z,100464.84
2022-07-27T20:14:39.394Z,100465.84
2022-07-27T20:17:06.956Z,100467.97
2022-07-27T20:19:34.267Z,100472.09
2022-07-27T20:22:01.943Z,100478.59
2022-07-27T20:24:29.431Z,100473.59
2022-07-27T20:26:56.994Z,100475.03
2022-07-27T20:29:26.026Z,100468.94
2022-07-27T20:31:55.315Z,100469.81
2022-07-27T20:34:24.409Z,100475.41
2022-07-27T20:36:52.076Z,100472.81
2022-07-27T20:39:19.568Z,100477.28
2022-07-27T20:41:47.307Z,100473.75
2022-07-27T20:44:14.300Z,100475.34
2022-07-27T20:46:41.358Z,100466.91
2022-07-27T20:49:08.523Z,100467.63
2022-07-27T20:51:35.576Z,100460.16
2022-07-27T20:54:04.449Z,100465.41
2022-07-27T20:56:31.831Z,100469.00
2022-07-27T20:58:59.074Z,100466.53
2022-07-27T21:01:26.273Z,100466.53
2022-07-27T21:03:53.834Z,100468.97
2022-07-27T21:06:20.906Z,100462.13
2022-07-27T21:08:48.054Z,100458.56
2022-07-27T21:11:15.445Z,100466.81
2022-07-27T21:13:42.709Z,100461.22
2022-07-27T21:16:09.812Z,100457.84
2022-07-27T21:18:36.977Z,100462.59
2022-07-27T21:21:04.072Z,100475.56
2022-07-27T21:23:53.011Z,100468.28
2022-07-27T21:26:20.137Z,100474.06
2022-07-27T21:28:48.602Z,100470.50
2022-07-27T21:31:15.560Z,100471.72
2022-07-27T21:33:42.617Z,100470.00
2022-07-27T21:36:09.655Z,100459.09
2022-07-27T21:38:36.671Z,100473.34
2022-07-27T21:41:05.500Z,100475.94
2022-07-27T21:43:33.356Z,100472.41
2022-07-27T21:46:00.507Z,100464.22
2022-07-27T21:48:27.619Z,100478.28
2022-07-27T21:50:54.741Z,100463.63
2022-07-27T21:53:21.730Z,100472.63
2022-07-27T21:55:48.760Z,100470.81
2022-07-27T21:58:16.081Z,100474.56
2022-07-27T22:00:43.634Z,100466.44
2022-07-27T22:03:10.837Z,100474.41
2022-07-27T22:05:38.977Z,100483.94
2022-07-27T22:08:06.089Z,100477.59
2022-07-27T22:10:33.135Z,100479.84
2022-07-27T22:13:00.728Z,100479.44
2022-07-27T22:15:28.512Z,100482.22
2022-07-27T22:17:55.549Z,100484.03
2022-07-27T22:20:23.074Z,100485.56
2022-07-27T22:22:50.712Z,100482.94
2022-07-27T22:25:18.852Z,100484.00
2022-07-27T22:27:46.136Z,100489.53
2022-07-27T22:30:13.331Z,100482.38
2022-07-27T22:32:40.315Z,100483.13
2022-07-27T22:35:08.037Z,100487.06
2022-07-27T22:37:35.162Z,100499.03
2022-07-27T22:40:02.660Z,100492.72
2022-07-27T22:42:29.652Z,100486.91
2022-07-27T22:44:56.685Z,100499.63
2022-07-27T22:47:24.003Z,100494.84
2022-07-27T22:49:52.192Z,100505.50
2022-07-27T22:52:19.195Z,100507.66
2022-07-27T22:54:46.621Z,100508.88
2022-07-27T22:57:13.696Z,100503.75
2022-07-27T22:59:41.293Z,100503.81
2022-07-27T23:02:09.014Z,100514.09
2022-07-27T23:04:36.238Z,100510.47
2022-07-27T23:07:03.389Z,100522.66
2022-07-27T23:09:30.341Z,100523.06
2022-07-27T23:11:57.563Z,100516.09
2022-07-27T23:14:25.963Z,100519.81
2022-07-27T23:16:53.123Z,100518.03
2022-07-27T23:19:20.210Z,100507.16
2022-07-27T23:21:47.255Z,100514.69
2022-07-27T23:24:15.650Z,100508.94
2022-07-27T23:26:43.386Z,100516.31
2022-07-27T23:29:10.392Z,100510.50
2022-07-27T23:31:37.389Z,100509.75
2022-07-27T23:34:04.478Z,100506.69
2022-07-27T23:36:31.480Z,100501.63
2022-07-27T23:38:58.517Z,100495.44
2022-07-27T23:41:25.948Z,100501.25
2022-07-27T23:43:52.912Z,100497.31
2022-07-27T23:46:20.051Z,100486.41
2022-07-27T23:48:47.185Z,100492.31
2022-07-27T23:51:21.232Z,100493.75
2022-07-27T23:53:48.859Z,100493.66
2022-07-27T23:56:16.217Z,100490.13
2022-07-27T23:58:43.574Z,100484.19
